Time;durP1;ratioP1;P1;durP2;ratioP2;P2;SDS_P1;SDS_P2;PMS_P1;PMS_P2;Temp;Humidity;BMP_temperature;BMP_pressure;BME280_temperature;BME280_humidity;BME280_pressure;Samples;Min_cycle;Max_cycle;Signal;HPM_P1;HPM_P2
2021/09/03 00:00:00;;;;;;;6.00;3.20;;;;;;;15.99;100.00;96967.69;5091581;28;20199;-82
2021/09/03 00:02:28;;;;;;;3.97;3.40;;;;;;;16.38;100.00;96957.81;5091592;28;20260;-82
2021/09/03 00:04:55;;;;;;;6.23;2.93;;;;;;;16.34;100.00;96956.50;5093637;28;20198;-82
2021/09/03 00:07:23;;;;;;;3.17;2.87;;;;;;;16.19;100.00;96949.50;5095877;28;20278;-81
2021/09/03 00:09:50;;;;;;;3.73;3.40;;;;;;;16.22;100.00;96957.09;5095577;28;20266;-82
2021/09/03 00:12:17;;;;;;;5.20;2.90;;;;;;;16.28;100.00;96961.69;5095610;28;20237;-82
2021/09/03 00:14:46;;;;;;;3.10;2.70;;;;;;;16.28;100.00;96961.69;5095651;28;20232;-82
2021/09/03 00:17:14;;;;;;;3.27;2.83;;;;;;;16.27;100.00;96963.50;5095441;28;20655;-82
2021/09/03 00:19:41;;;;;;;4.23;3.53;;;;;;;16.33;100.00;96960.16;5095660;28;20275;-82
2021/09/03 00:22:09;;;;;;;3.67;2.93;;;;;;;16.16;100.00;96955.97;5095275;28;20235;-81
2021/09/03 00:24:36;;;;;;;3.93;2.60;;;;;;;16.11;100.00;96959.16;5095708;28;20206;-82
2021/09/03 00:27:04;;;;;;;8.07;3.03;;;;;;;16.02;100.00;96956.75;5095240;28;20561;-82
2021/09/03 00:29:32;;;;;;;3.87;3.47;;;;;;;15.79;100.00;96968.13;5095092;28;20200;-82
2021/09/03 00:32:00;;;;;;;3.60;3.30;;;;;;;15.59;100.00;96961.59;5095250;28;20201;-82
2021/09/03 00:34:28;;;;;;;3.30;3.00;;;;;;;15.71;100.00;96960.22;5095237;28;20195;-81
2021/09/03 00:36:56;;;;;;;3.30;3.00;;;;;;;15.92;100.00;96957.78;5094720;28;20198;-82
2021/09/03 00:39:23;;;;;;;4.63;3.00;;;;;;;15.95;100.00;96955.78;5095518;28;20566;-81
2021/09/03 00:41:51;;;;;;;6.83;3.40;;;;;;;15.64;100.00;96962.72;5095144;28;20254;-81
2021/09/03 00:44:18;;;;;;;3.80;2.90;;;;;;;15.81;100.00;96955.53;5095286;28;20298;-82
2021/09/03 00:46:46;;;;;;;2.70;2.47;;;;;;;15.88;100.00;96961.78;5095338;28;20580;-82
2021/09/03 00:49:14;;;;;;;2.97;2.60;;;;;;;15.68;100.00;96963.22;5094675;28;20228;-81
2021/09/03 00:51:43;;;;;;;4.07;3.10;;;;;;;15.63;100.00;96958.41;5094826;28;20277;-82
2021/09/03 00:54:10;;;;;;;3.33;3.03;;;;;;;15.41;100.00;96953.88;5094756;28;20205;-82
2021/09/03 00:56:38;;;;;;;4.80;3.50;;;;;;;15.63;100.00;96957.59;5095089;28;20194;-81
2021/09/03 00:59:05;;;;;;;6.83;4.10;;;;;;;15.46;100.00;96962.97;5094335;28;20258;-81
2021/09/03 01:01:32;;;;;;;4.13;3.67;;;;;;;15.45;100.00;96953.38;5094971;28;20228;-81
2021/09/03 01:04:00;;;;;;;3.83;3.10;;;;;;;15.67;100.00;96962.41;5094512;28;20198;-82
2021/09/03 01:06:29;;;;;;;6.50;4.20;;;;;;;15.61;100.00;96964.88;5094636;28;20288;-82
2021/09/03 01:08:57;;;;;;;4.07;3.40;;;;;;;15.68;100.00;96964.03;5094519;28;20260;-81
2021/09/03 01:11:24;;;;;;;5.53;3.40;;;;;;;15.75;100.00;96956.22;5094805;28;20225;-82
2021/09/03 01:13:51;;;;;;;4.97;3.20;;;;;;;16.05;100.00;96956.38;5094284;28;20238;-82
2021/09/03 01:16:19;;;;;;;3.33;3.03;;;;;;;15.92;100.00;96954.31;5093146;28;20208;-82
2021/09/03 01:18:46;;;;;;;3.80;3.47;;;;;;;15.98;100.00;96950.13;5094389;28;20200;-82
2021/09/03 01:21:13;;;;;;;4.13;3.70;;;;;;;16.05;100.00;96941.31;5090529;28;20194;-79
2021/09/03 01:23:42;;;;;;;4.27;3.33;;;;;;;16.03;100.00;96943.28;5073465;28;20642;-79
2021/09/03 01:26:10;;;;;;;4.50;4.10;;;;;;;15.87;100.00;96946.88;5073893;28;20257;-79
2021/09/03 01:28:38;;;;;;;3.70;3.40;;;;;;;15.81;100.00;96955.53;5073948;28;20560;-79
2021/09/03 01:31:06;;;;;;;4.10;3.00;;;;;;;16.03;100.00;96948.59;5073612;28;20223;-79
2021/09/03 01:33:33;;;;;;;5.23;3.07;;;;;;;16.03;100.00;96948.59;5073865;28;20201;-79
2021/09/03 01:36:01;;;;;;;6.30;3.60;;;;;;;15.97;100.00;96951.13;5073442;28;20206;-79
2021/09/03 01:38:28;;;;;;;5.87;2.87;;;;;;;15.77;100.00;96943.63;5072869;28;20235;-80
2021/09/03 01:40:57;;;;;;;2.87;2.67;;;;;;;15.95;100.00;96942.53;5073728;28;20191;-80
2021/09/03 01:43:24;;;;;;;3.93;2.97;;;;;;;16.07;100.00;96938.47;5073561;28;20202;-79
2021/09/03 01:45:52;;;;;;;5.13;3.30;;;;;;;15.95;100.00;96947.84;5073293;28;20223;-79
2021/09/03 01:48:20;;;;;;;3.53;3.23;;;;;;;15.79;100.00;96943.44;5073375;28;20195;-79
2021/09/03 01:50:47;;;;;;;3.87;3.13;;;;;;;15.80;100.00;96927.38;5073419;28;20224;-79
2021/09/03 01:53:14;;;;;;;3.50;3.20;;;;;;;15.77;100.00;96932.22;5073166;28;20240;-79
2021/09/03 01:55:42;;;;;;;2.83;2.57;;;;;;;16.02;100.00;96936.34;5073399;28;20630;-80
2021/09/03 01:58:10;;;;;;;4.47;3.57;;;;;;;15.94;100.00;96936.41;5072955;28;20202;-80
2021/09/03 02:00:38;;;;;;;4.43;3.40;;;;;;;15.54;100.00;96935.59;5073163;28;20196;-79
2021/09/03 02:03:05;;;;;;;5.97;3.23;;;;;;;15.45;100.00;96937.47;5073149;28;20209;-79
2021/09/03 02:05:32;;;;;;;3.90;3.50;;;;;;;15.64;100.00;96946.81;5072867;28;20205;-80
2021/09/03 02:08:00;;;;;;;5.17;2.87;;;;;;;15.66;100.00;96942.22;5072865;28;20257;-80
2021/09/03 02:10:27;;;;;;;4.77;3.10;;;;;;;15.68;100.00;96934.06;5072899;28;20647;-80
2021/09/03 02:12:54;;;;;;;4.83;3.13;;;;;;;15.86;100.00;96939.09;5072755;28;20203;-79
2021/09/03 02:15:23;;;;;;;6.90;4.07;;;;;;;15.91;100.00;96942.88;5072471;28;20253;-79
2021/09/03 02:17:51;;;;;;;4.17;3.13;;;;;;;15.86;100.00;96936.44;5072678;28;20612;-79
2021/09/03 02:20:18;;;;;;;3.40;2.40;;;;;;;15.95;100.00;96930.09;5072797;28;20747;-79
2021/09/03 02:22:46;;;;;;;3.20;2.90;;;;;;;16.04;100.00;96928.22;5072384;28;20679;-79
2021/09/03 02:25:13;;;;;;;2.67;2.47;;;;;;;16.08;100.00;96925.03;5072419;28;20205;-79
2021/09/03 02:27:41;;;;;;;3.90;3.00;;;;;;;16.21;100.00;96940.38;5072087;28;20209;-79
2021/09/03 02:30:09;;;;;;;2.77;2.57;;;;;;;16.17;100.00;96939.91;5072429;28;20199;-79
2021/09/03 02:32:38;;;;;;;3.97;2.80;;;;;;;15.96;100.00;96930.91;5072116;28;20223;-79
2021/09/03 02:35:07;;;;;;;4.97;2.73;;;;;;;16.15;100.00;96935.78;5072500;28;20203;-79
2021/09/03 02:37:35;;;;;;;2.60;2.40;;;;;;;16.10;100.00;96943.41;5072315;28;20231;-80
2021/09/03 02:40:02;;;;;;;4.37;2.83;;;;;;;15.81;100.00;96944.09;5072407;28;20203;-79
2021/09/03 02:42:30;;;;;;;4.30;3.77;;;;;;;15.27;100.00;96933.41;5072053;28;20195;-80
2021/09/03 02:44:57;;;;;;;3.73;3.30;;;;;;;15.15;100.00;96936.44;5072418;28;20195;-80
2021/09/03 02:47:24;;;;;;;3.50;3.20;;;;;;;15.26;100.00;96937.06;5072038;28;20564;-80
2021/09/03 02:49:53;;;;;;;4.43;3.63;;;;;;;15.45;100.00;96926.88;5072283;28;20671;-80
2021/09/03 02:52:20;;;;;;;3.53;2.90;;;;;;;15.53;100.00;96933.13;5071786;28;20222;-80
2021/09/03 02:54:48;;;;;;;3.80;2.80;;;;;;;15.63;100.00;96917.84;5072243;28;20203;-80
2021/09/03 02:57:15;;;;;;;3.83;3.43;;;;;;;15.63;100.00;96920.50;5071991;28;20667;-80
2021/09/03 02:59:42;;;;;;;3.10;2.80;;;;;;;15.67;100.00;96927.13;5071808;28;20194;-80
2021/09/03 03:02:10;;;;;;;4.57;3.03;;;;;;;15.82;100.00;96935.97;5072175;28;20611;-79
2021/09/03 03:04:37;;;;;;;3.10;2.10;;;;;;;15.82;100.00;96940.44;5073418;28;21021;-79
2021/09/03 03:07:06;;;;;;;2.63;2.40;;;;;;;15.93;100.00;96929.44;5090445;28;20196;-79
2021/09/03 03:09:33;;;;;;;4.20;2.63;;;;;;;16.06;100.00;96932.34;5090774;28;20669;-79
2021/09/03 03:12:00;;;;;;;3.20;2.60;;;;;;;16.06;100.00;96932.34;5091143;28;20222;-79
2021/09/03 03:14:28;;;;;;;2.43;2.23;;;;;;;16.11;100.00;96934.47;5092291;28;20229;-79
2021/09/03 03:16:56;;;;;;;2.60;2.40;;;;;;;16.17;100.00;96934.59;5092472;28;20600;-79
2021/09/03 03:19:26;;;;;;;2.77;2.57;;;;;;;16.00;100.00;96933.03;5092172;28;20201;-79
2021/09/03 03:21:56;;;;;;;2.53;2.33;;;;;;;16.15;100.00;96946.38;5091870;28;20195;-79
2021/09/03 03:24:24;;;;;;;2.60;2.40;;;;;;;16.12;100.00;96936.13;5092005;28;20207;-79
2021/09/03 03:26:52;;;;;;;3.50;2.37;;;;;;;16.07;100.00;96938.47;5092112;28;20254;-79
2021/09/03 03:29:19;;;;;;;2.63;2.43;;;;;;;16.00;100.00;96948.13;5092339;28;20195;-79
2021/09/03 03:31:47;;;;;;;2.47;2.27;;;;;;;16.01;100.00;96940.00;5091736;28;20227;-79
2021/09/03 03:34:14;;;;;;;2.70;2.50;;;;;;;16.11;100.00;96948.56;5091954;28;20733;-79
2021/09/03 03:36:42;;;;;;;2.73;2.43;;;;;;;16.04;100.00;96941.50;5092012;28;20196;-79
2021/09/03 03:39:09;;;;;;;3.80;2.40;;;;;;;16.08;100.00;96948.09;5090882;28;20236;-80
2021/09/03 03:41:39;;;;;;;2.63;2.30;;;;;;;16.07;100.00;96954.38;5091726;28;20219;-79
2021/09/03 03:44:06;;;;;;;2.50;2.10;;;;;;;16.10;100.00;96964.63;5091728;28;20194;-79
2021/09/03 03:46:34;;;;;;;2.97;2.23;;;;;;;16.22;100.00;96959.75;5091858;28;20590;-79
2021/09/03 03:49:04;;;;;;;2.63;2.43;;;;;;;16.21;100.00;96972.19;5091602;28;20665;-79
2021/09/03 03:51:32;;;;;;;4.17;2.30;;;;;;;16.13;100.00;96986.31;5091591;28;20223;-79
2021/09/03 03:53:59;;;;;;;5.27;2.50;;;;;;;15.97;100.00;96985.59;5091990;28;20625;-79
2021/09/03 03:56:27;;;;;;;5.90;2.57;;;;;;;15.48;100.00;96985.78;5091843;28;20200;-79
2021/09/03 03:58:55;;;;;;;3.13;2.80;;;;;;;15.63;100.00;96992.03;5091383;28;20198;-77
2021/09/03 04:01:23;;;;;;;3.27;2.30;;;;;;;15.59;100.00;96990.75;5091796;28;20196;-78
2021/09/03 04:03:50;;;;;;;3.03;2.47;;;;;;;15.81;100.00;97000.59;5091635;28;20242;-78
2021/09/03 04:06:18;;;;;;;4.33;2.73;;;;;;;15.70;100.00;97006.28;5091675;28;20201;-79
2021/09/03 04:08:45;;;;;;;6.30;2.40;;;;;;;15.86;100.00;97002.72;5091334;28;20669;-78
2021/09/03 04:11:12;;;;;;;2.57;2.37;;;;;;;15.81;100.00;97000.59;5091625;28;20263;-78
2021/09/03 04:13:40;;;;;;;2.47;2.27;;;;;;;15.77;100.00;97004.59;5091828;28;20224;-78
2021/09/03 04:16:09;;;;;;;2.60;2.20;;;;;;;15.90;100.00;96999.56;5091699;28;20697;-78
2021/09/03 04:18:38;;;;;;;2.97;2.63;;;;;;;15.88;100.00;96998.06;5091424;28;20581;-78
2021/09/03 04:21:06;;;;;;;2.73;2.47;;;;;;;15.83;100.00;96995.09;5091344;28;20788;-78
2021/09/03 04:23:34;;;;;;;2.63;2.37;;;;;;;16.02;100.00;97007.94;5091381;28;20665;-78
2021/09/03 04:26:01;;;;;;;2.30;2.10;;;;;;;15.89;100.00;97005.84;5091628;28;20198;-78
2021/09/03 04:28:28;;;;;;;4.50;2.60;;;;;;;15.94;100.00;97002.69;5091359;28;20204;-78
2021/09/03 04:30:56;;;;;;;2.60;2.40;;;;;;;15.91;100.00;96993.25;5091176;28;20319;-78
2021/09/03 04:33:25;;;;;;;3.27;2.50;;;;;;;15.95;100.00;96999.03;5091341;28;20661;-78
2021/09/03 04:35:52;;;;;;;3.07;2.57;;;;;;;15.96;100.00;97002.50;5091816;28;20626;-79
2021/09/03 04:38:20;;;;;;;3.17;2.87;;;;;;;15.91;100.00;96993.25;5091078;28;20237;-78
2021/09/03 04:40:48;;;;;;;2.70;2.50;;;;;;;15.90;100.00;96991.59;5090906;28;20681;-78
2021/09/03 04:43:15;;;;;;;2.50;2.30;;;;;;;15.91;100.00;96987.94;5090180;28;20238;-78
2021/09/03 04:45:43;;;;;;;5.50;2.63;;;;;;;15.84;100.00;96994.94;5090492;28;20200;-78
2021/09/03 04:48:10;;;;;;;3.97;2.73;;;;;;;15.91;100.00;97009.16;5091269;28;20731;-78
2021/09/03 04:50:39;;;;;;;4.53;2.50;;;;;;;15.95;100.00;97003.50;5092394;28;20243;-78
2021/09/03 04:53:07;;;;;;;3.33;2.83;;;;;;;15.90;100.00;97004.88;5094752;28;20225;-78
2021/09/03 04:55:34;;;;;;;3.40;2.90;;;;;;;15.80;100.00;97012.19;5094834;28;20189;-79
2021/09/03 04:58:02;;;;;;;5.90;2.40;;;;;;;15.77;100.00;97019.69;5094470;28;20206;-78
2021/09/03 05:00:29;;;;;;;3.47;3.17;;;;;;;15.89;100.00;97011.13;5094907;28;20667;-78
2021/09/03 05:02:56;;;;;;;2.80;2.37;;;;;;;15.94;100.00;97013.28;5094978;28;20298;-78
2021/09/03 05:05:24;;;;;;;3.10;2.80;;;;;;;15.85;100.00;97019.63;5094791;28;20236;-78
2021/09/03 05:07:53;;;;;;;2.67;2.30;;;;;;;15.89;100.00;97019.09;5094283;28;20288;-78
2021/09/03 05:10:20;;;;;;;2.97;2.57;;;;;;;15.86;100.00;97021.25;5094709;28;20197;-78
2021/09/03 05:12:48;;;;;;;6.47;2.93;;;;;;;15.95;100.00;97014.94;5094673;28;20242;-78
2021/09/03 05:15:17;;;;;;;7.87;3.33;;;;;;;15.86;100.00;97014.16;5094934;28;20299;-78
2021/09/03 05:17:48;;;;;;;2.43;2.20;;;;;;;15.84;100.00;97012.69;5094635;28;20229;-78
2021/09/03 05:20:15;;;;;;;3.60;2.90;;;;;;;15.69;100.00;97023.19;5094343;28;20566;-78
2021/09/03 05:22:43;;;;;;;2.60;2.23;;;;;;;15.79;100.00;97018.47;5094291;28;20290;-78
2021/09/03 05:25:14;;;;;;;4.27;2.77;;;;;;;15.86;100.00;97026.56;5094366;28;20281;-78
2021/09/03 05:27:42;;;;;;;3.37;2.60;;;;;;;15.89;100.00;97023.56;5094201;28;20181;-78
2021/09/03 05:30:10;;;;;;;4.27;2.53;;;;;;;16.00;100.00;97025.81;5094396;28;20277;-78
2021/09/03 05:32:38;;;;;;;10.03;2.90;;;;;;;16.08;100.00;97031.09;5093976;28;20604;-78
2021/09/03 05:35:07;;;;;;;3.03;2.73;;;;;;;15.99;100.00;97026.84;5094234;28;20196;-78
2021/09/03 05:37:34;;;;;;;3.57;2.63;;;;;;;16.04;100.00;97031.63;5093716;28;20664;-78
2021/09/03 05:40:02;;;;;;;3.23;2.73;;;;;;;16.11;100.00;97033.41;5094429;28;20225;-78
2021/09/03 05:42:30;;;;;;;3.50;2.53;;;;;;;16.24;100.00;97046.09;5093983;28;20246;-77
2021/09/03 05:44:58;;;;;;;2.40;2.20;;;;;;;16.26;100.00;97045.94;5094047;28;20236;-78
2021/09/03 05:47:25;;;;;;;3.53;2.53;;;;;;;16.42;100.00;97059.09;5094085;28;20266;-78
2021/09/03 05:49:52;;;;;;;3.00;2.70;;;;;;;16.69;100.00;97060.38;5094000;28;20224;-78
2021/09/03 05:52:20;;;;;;;2.97;2.20;;;;;;;16.70;100.00;97062.03;5093912;28;20333;-78
2021/09/03 05:54:47;;;;;;;3.23;1.97;;;;;;;16.70;100.00;97062.03;5093814;28;20194;-78
2021/09/03 05:57:15;;;;;;;4.97;2.43;;;;;;;16.55;100.00;97069.09;5093572;28;20293;-78
2021/09/03 05:59:43;;;;;;;2.70;2.43;;;;;;;16.46;100.00;97060.38;5093497;28;20321;-78
2021/09/03 06:02:11;;;;;;;2.20;2.00;;;;;;;16.56;100.00;97058.34;5092744;28;20356;-78
2021/09/03 06:04:38;;;;;;;3.33;2.33;;;;;;;16.71;100.00;97061.03;5093938;28;20236;-79
2021/09/03 06:07:05;;;;;;;6.23;2.60;;;;;;;16.93;100.00;97062.03;5093736;28;20213;-78
2021/09/03 06:09:32;;;;;;;2.93;2.73;;;;;;;17.14;100.00;97061.34;5093633;28;20225;-78
2021/09/03 06:12:00;;;;;;;4.23;2.73;;;;;;;17.34;100.00;97065.16;5093295;28;20762;-78
2021/09/03 06:14:27;;;;;;;3.50;2.53;;;;;;;17.42;100.00;97068.72;5093436;28;20293;-78
2021/09/03 06:16:56;;;;;;;2.67;2.47;;;;;;;17.47;100.00;97069.03;5093619;28;20575;-78
2021/09/03 06:19:23;;;;;;;2.37;2.17;;;;;;;17.47;100.00;97075.16;5093022;28;20199;-78
2021/09/03 06:21:51;;;;;;;6.20;2.77;;;;;;;17.42;100.00;97077.50;5093573;28;20574;-78
2021/09/03 06:24:30;;;;;;;6.47;2.73;;;;;;;17.49;100.00;97072.31;5093165;28;20200;-78
2021/09/03 06:26:59;;;;;;;4.83;2.40;;;;;;;17.67;100.00;97080.75;5092875;28;20645;-79
2021/09/03 06:29:39;;;;;;;2.73;2.47;;;;;;;17.78;100.00;97080.31;5093110;28;20206;-78
2021/09/03 06:32:10;;;;;;;3.50;2.33;;;;;;;17.92;100.00;97081.34;5092841;28;20610;-78
2021/09/03 06:34:39;;;;;;;2.70;2.50;;;;;;;17.82;100.00;97092.25;5093080;28;20643;-78
2021/09/03 06:37:07;;;;;;;3.03;2.10;;;;;;;17.73;100.00;97095.97;5092376;28;20735;-78
2021/09/03 06:39:34;;;;;;;3.03;2.00;;;;;;;17.89;100.00;97104.81;5092989;28;20225;-78
2021/09/03 06:42:02;;;;;;;2.97;1.90;;;;;;;18.01;100.00;97108.63;5092738;28;20196;-78
2021/09/03 06:44:29;;;;;;;2.63;2.27;;;;;;;18.02;100.00;97111.13;5092871;28;20200;-78
2021/09/03 06:46:57;;;;;;;3.83;2.30;;;;;;;18.12;100.00;97126.81;5092485;28;20628;-78
2021/09/03 06:49:26;;;;;;;5.07;2.60;;;;;;;18.50;100.00;97124.81;5093057;28;20299;-78
2021/09/03 06:51:54;;;;;;;2.37;2.17;;;;;;;18.63;100.00;97132.09;5092561;28;20720;-78
2021/09/03 06:54:21;;;;;;;3.27;2.33;;;;;;;18.91;100.00;97134.06;5092927;28;20246;-78
2021/09/03 06:56:49;;;;;;;3.70;2.43;;;;;;;19.12;100.00;97127.91;5092707;28;20197;-78
2021/09/03 06:59:16;;;;;;;2.50;2.27;;;;;;;18.80;100.00;97138.06;5092783;28;20632;-78
2021/09/03 07:01:43;;;;;;;3.03;2.40;;;;;;;19.07;100.00;97135.66;5092836;28;20200;-79
2021/09/03 07:04:10;;;;;;;2.70;2.50;;;;;;;19.09;100.00;97142.47;5092699;28;20195;-78
2021/09/03 07:06:39;;;;;;;3.30;2.70;;;;;;;19.36;100.00;97135.53;5092260;28;20197;-79
2021/09/03 07:09:07;;;;;;;3.27;2.40;;;;;;;19.34;100.00;97140.22;5092573;28;20192;-79
2021/09/03 07:11:34;;;;;;;3.63;2.70;;;;;;;19.61;100.00;97143.91;5092554;28;20203;-78
2021/09/03 07:14:03;;;;;;;2.47;2.20;;;;;;;19.68;100.00;97134.16;5092185;28;20251;-78
2021/09/03 07:16:31;;;;;;;3.10;2.40;;;;;;;19.78;100.00;97148.97;5092344;28;20672;-79
2021/09/03 07:19:02;;;;;;;4.27;2.70;;;;;;;19.92;100.00;97145.38;5092091;28;20200;-79
2021/09/03 07:21:29;;;;;;;4.67;2.63;;;;;;;19.85;100.00;97147.19;5092642;28;20237;-79
2021/09/03 07:23:59;;;;;;;4.10;2.30;;;;;;;19.54;100.00;97152.88;5091801;28;20287;-78
2021/09/03 07:26:26;;;;;;;3.17;2.40;;;;;;;19.43;100.00;97152.41;5092226;28;20228;-78
2021/09/03 07:28:54;;;;;;;3.17;2.60;;;;;;;19.59;100.00;97156.59;5092010;28;20778;-78
2021/09/03 07:31:22;;;;;;;3.23;2.73;;;;;;;19.89;100.00;97149.25;5091957;28;20234;-78
2021/09/03 07:33:49;;;;;;;4.10;2.63;;;;;;;19.71;100.00;97155.09;5092185;28;20219;-78
2021/09/03 07:36:17;;;;;;;5.50;2.20;;;;;;;19.77;100.00;97158.00;5092220;28;20193;-78
2021/09/03 07:38:44;;;;;;;2.40;2.20;;;;;;;19.79;100.00;97150.63;5091745;28;20720;-78
2021/09/03 07:41:13;;;;;;;2.33;2.13;;;;;;;20.38;100.00;97145.63;5092145;28;20254;-78
2021/09/03 07:43:40;;;;;;;2.60;2.40;;;;;;;20.39;100.00;97143.75;5091583;28;20278;-78
2021/09/03 07:46:08;;;;;;;2.80;2.33;;;;;;;20.99;100.00;97143.97;5092022;28;20200;-78
2021/09/03 07:48:35;;;;;;;3.07;2.77;;;;;;;21.38;100.00;97145.91;5091749;28;20192;-78
2021/09/03 07:51:03;;;;;;;2.67;2.30;;;;;;;21.00;100.00;97146.44;5091971;28;20203;-79
2021/09/03 07:53:30;;;;;;;4.00;2.20;;;;;;;21.34;100.00;97144.69;5091407;28;20227;-78
2021/09/03 07:55:57;;;;;;;2.60;2.40;;;;;;;21.43;100.00;97132.72;5092207;28;20192;-78
2021/09/03 07:58:26;;;;;;;3.63;2.30;;;;;;;21.38;100.00;97137.88;5091720;28;20196;-79
2021/09/03 08:00:54;;;;;;;3.27;2.20;;;;;;;21.74;100.00;97133.94;5091911;28;20223;-79
2021/09/03 08:03:21;;;;;;;3.03;2.33;;;;;;;22.05;100.00;97119.88;5091669;28;20201;-78
2021/09/03 08:05:48;;;;;;;2.40;2.20;;;;;;;21.31;100.00;97132.50;5091920;28;20192;-79
2021/09/03 08:08:16;;;;;;;2.63;2.43;;;;;;;21.60;100.00;97131.28;5091908;28;20333;-79
2021/09/03 08:10:43;;;;;;;2.53;1.93;;;;;;;20.93;100.00;97140.28;5091828;28;20242;-79
2021/09/03 08:13:11;;;;;;;3.30;2.50;;;;;;;21.38;100.00;97139.75;5091795;28;20220;-78
2021/09/03 08:15:41;;;;;;;5.67;2.50;;;;;;;21.50;100.00;97130.88;5091796;28;20275;-79
2021/09/03 08:18:09;;;;;;;2.53;2.30;;;;;;;21.52;100.00;97125.31;5091848;28;20282;-79
2021/09/03 08:20:37;;;;;;;3.20;2.10;;;;;;;21.95;100.00;97125.66;5091698;28;20283;-79
2021/09/03 08:23:05;;;;;;;6.90;2.50;;;;;;;22.42;100.00;97125.56;5091514;28;20197;-79
2021/09/03 08:25:33;;;;;;;4.33;2.40;;;;;;;22.82;100.00;97123.47;5092847;28;20196;-79
2021/09/03 08:28:01;;;;;;;3.80;2.40;;;;;;;23.16;100.00;97124.94;5095632;28;20201;-79
2021/09/03 08:30:28;;;;;;;2.17;2.00;;;;;;;22.97;100.00;97120.56;5095489;28;20291;-79
2021/09/03 08:32:57;;;;;;;2.73;2.53;;;;;;;23.26;100.00;97111.06;5094959;28;20228;-79
2021/09/03 08:35:25;;;;;;;4.33;2.70;;;;;;;23.07;100.00;97120.06;5095436;28;20764;-79
2021/09/03 08:37:53;;;;;;;3.27;2.47;;;;;;;22.80;100.00;97117.53;5095010;28;20232;-79
2021/09/03 08:40:20;;;;;;;3.37;2.20;;;;;;;22.73;100.00;97114.06;5095002;28;20200;-79
2021/09/03 08:42:48;;;;;;;7.90;2.20;;;;;;;22.28;100.00;97125.59;5095041;28;20651;-79
2021/09/03 08:45:16;;;;;;;2.47;2.13;;;;;;;22.92;100.00;97121.19;5095469;28;20296;-79
2021/09/03 08:47:44;;;;;;;2.30;2.10;;;;;;;23.19;100.00;97115.66;5095294;28;20253;-79
2021/09/03 08:50:16;;;;;;;3.37;2.87;;;;;;;22.93;100.00;97113.97;5094894;28;20192;-79
2021/09/03 08:52:45;;;;;;;4.37;2.60;;;;;;;22.56;100.00;97127.13;5095180;28;20251;-79
2021/09/03 08:55:13;;;;;;;4.87;2.50;;;;;;;22.75;100.00;97115.47;5095004;28;20192;-79
2021/09/03 08:57:40;;;;;;;2.87;2.67;;;;;;;23.24;100.00;97115.81;5094809;28;20196;-79
2021/09/03 09:00:28;;;;;;;3.77;2.80;;;;;;;22.94;100.00;97113.75;5094948;28;20242;-80
2021/09/03 09:03:05;;;;;;;2.57;2.37;;;;;;;22.93;100.00;97103.22;5094475;28;20664;-79
2021/09/03 09:05:54;;;;;;;3.20;2.90;;;;;;;23.36;100.00;97100.66;5094869;28;20191;-80
2021/09/03 09:08:23;;;;;;;3.33;2.30;;;;;;;22.85;100.00;97101.59;5094621;28;20246;-79
2021/09/03 09:10:53;;;;;;;2.80;2.47;;;;;;;23.57;100.00;97091.38;5094731;28;20200;-79
2021/09/03 09:13:23;;;;;;;2.93;2.43;;;;;;;24.13;100.00;97098.47;5094501;28;20211;-79
2021/09/03 09:16:06;;;;;;;3.23;2.80;;;;;;;23.62;100.00;97093.41;5094941;28;20551;-79
2021/09/03 11:19:50;;;;;;;2.93;2.73;;;;;;;22.13;100.00;97007.19;5065574;28;20568;-79
2021/09/03 11:22:19;;;;;;;2.90;2.60;;;;;;;22.45;100.00;97012.63;5065728;28;20296;-79
2021/09/03 11:24:48;;;;;;;2.57;2.37;;;;;;;22.87;100.00;97005.75;5065511;28;20236;-79
2021/09/03 11:27:17;;;;;;;3.40;3.10;;;;;;;22.70;100.00;97015.34;5065361;28;20201;-78
2021/09/03 11:29:46;;;;;;;3.10;2.80;;;;;;;22.69;100.00;97008.34;5065391;28;20281;-78
2021/09/03 11:32:15;;;;;;;3.10;2.80;;;;;;;22.53;100.00;97007.00;5065522;28;20201;-78
2021/09/03 11:34:55;;;;;;;2.77;2.57;;;;;;;22.69;100.00;97003.81;5065331;28;20193;-76
2021/09/03 11:37:34;;;;;;;2.97;2.77;;;;;;;22.47;100.00;97008.69;5065776;27;20240;-76
2021/09/03 11:40:16;;;;;;;4.63;2.60;;;;;;;22.41;100.00;97008.72;5065379;28;20196;-76
2021/09/03 11:42:45;;;;;;;3.67;2.90;;;;;;;21.95;100.00;97005.22;5065430;28;20201;-76
2021/09/03 11:45:16;;;;;;;2.77;2.57;;;;;;;21.91;100.00;97001.34;5065389;28;20204;-76
2021/09/03 11:47:54;;;;;;;4.23;2.90;;;;;;;21.89;100.00;97005.25;5065243;28;20663;-76
2021/09/03 11:50:28;;;;;;;3.80;2.80;;;;;;;21.97;100.00;96997.81;5065157;28;20192;-76
2021/09/03 11:52:56;;;;;;;3.47;3.17;;;;;;;21.82;100.00;96998.09;5065521;28;20264;-76
2021/09/03 11:55:24;;;;;;;3.77;3.40;;;;;;;22.02;100.00;96997.16;5064894;28;20233;-76
2021/09/03 11:57:57;;;;;;;3.07;2.87;;;;;;;21.94;100.00;97000.91;5065148;28;20198;-76
2021/09/03 12:00:26;;;;;;;3.33;3.00;;;;;;;22.12;100.00;96996.72;5065105;28;20190;-76
2021/09/03 12:02:55;;;;;;;3.83;3.30;;;;;;;21.89;100.00;96986.50;5065050;28;20198;-76
2021/09/03 12:05:25;;;;;;;3.77;3.27;;;;;;;21.95;100.00;96991.84;5065316;28;20194;-76
2021/09/03 12:08:03;;;;;;;3.80;3.50;;;;;;;21.53;100.00;96994.06;5064926;28;20225;-78
2021/09/03 12:10:35;;;;;;;3.47;3.10;;;;;;;21.52;100.00;96987.06;5065292;28;20197;-79
2021/09/03 12:13:11;;;;;;;4.60;3.77;;;;;;;21.78;100.00;96980.78;5064800;28;20219;-79
2021/09/03 12:15:39;;;;;;;4.77;3.60;;;;;;;21.95;100.00;96973.09;5064659;28;20272;-79
2021/09/03 12:18:24;;;;;;;3.70;3.40;;;;;;;21.72;100.00;96973.63;5064585;28;20225;-78
2021/09/03 12:20:56;;;;;;;3.93;3.07;;;;;;;21.71;100.00;96973.81;5048904;28;20202;-78
2021/09/03 12:23:24;;;;;;;4.10;3.80;;;;;;;21.95;100.00;96967.75;5050956;28;20281;-79
2021/09/03 12:25:51;;;;;;;3.37;3.03;;;;;;;22.15;100.00;96964.19;5051352;28;20338;-78
2021/09/03 12:28:20;;;;;;;3.87;2.70;;;;;;;22.51;100.00;96956.34;5051066;28;20265;-78
2021/09/03 12:30:52;;;;;;;4.33;3.60;;;;;;;22.23;100.00;96964.75;5051026;28;20204;-78
2021/09/03 12:33:25;;;;;;;2.80;2.60;;;;;;;22.70;100.00;96956.41;5051334;28;20220;-78
2021/09/03 12:35:55;;;;;;;5.50;2.87;;;;;;;22.52;100.00;96951.81;5051148;28;20198;-78
2021/09/03 12:38:37;;;;;;;3.17;2.90;;;;;;;22.35;100.00;96962.22;5050981;28;20214;-78
2021/09/03 12:41:10;;;;;;;3.33;3.10;;;;;;;22.67;100.00;96946.94;5051373;28;20186;-78
2021/09/03 12:43:38;;;;;;;5.10;3.90;;;;;;;22.69;100.00;96944.06;5050719;28;20654;-79
2021/09/03 12:46:14;;;;;;;4.27;3.13;;;;;;;22.39;100.00;96938.50;5050989;28;20194;-78
2021/09/03 12:48:43;;;;;;;5.20;3.27;;;;;;;22.55;100.00;96941.47;5050839;28;20221;-78
2021/09/03 12:51:21;;;;;;;5.07;3.07;;;;;;;22.95;100.00;96927.75;5051220;28;20281;-78
2021/09/03 12:53:50;;;;;;;3.30;3.00;;;;;;;23.25;100.00;96935.09;5050799;28;20186;-78
2021/09/03 12:56:17;;;;;;;3.97;3.40;;;;;;;23.23;100.00;96932.63;5050934;28;20201;-78
2021/09/03 12:58:45;;;;;;;3.33;2.97;;;;;;;23.10;100.00;96929.25;5050904;28;20233;-78
2021/09/03 13:01:13;;;;;;;3.77;2.87;;;;;;;23.22;100.00;96922.94;5050541;28;20258;-78
2021/09/03 13:03:42;;;;;;;3.27;2.97;;;;;;;23.29;100.00;96919.38;5050880;28;20198;-78
2021/09/03 13:06:10;;;;;;;4.93;2.77;;;;;;;23.28;100.00;96921.25;5050710;28;20206;-78
2021/09/03 13:08:39;;;;;;;3.30;3.07;;;;;;;23.52;100.00;96906.13;5050454;28;20768;-78
2021/09/03 13:11:07;;;;;;;4.17;3.20;;;;;;;23.96;100.00;96910.28;5050482;28;20730;-78
2021/09/03 13:13:35;;;;;;;3.60;3.30;;;;;;;23.46;100.00;96907.81;5050437;28;20198;-78
2021/09/03 13:16:02;;;;;;;3.97;3.37;;;;;;;23.63;100.00;96904.53;5050511;28;20193;-78
2021/09/03 13:18:29;;;;;;;8.17;3.50;;;;;;;23.91;100.00;96901.31;5050091;28;20313;-78
2021/09/03 13:20:57;;;;;;;4.93;3.10;;;;;;;24.08;100.00;96896.13;5050746;28;20281;-78
2021/09/03 13:23:25;;;;;;;3.23;3.03;;;;;;;24.21;100.00;96890.53;5050321;28;20210;-78
2021/09/03 13:25:55;;;;;;;6.00;3.07;;;;;;;24.33;100.00;96880.63;5050134;28;20723;-78
2021/09/03 13:28:22;;;;;;;3.40;3.10;;;;;;;24.32;100.00;96873.63;5050066;28;20316;-79
2021/09/03 13:30:50;;;;;;;4.83;3.40;;;;;;;23.74;100.00;96876.97;5049613;28;20632;-78